Time;durP1;ratioP1;P1;durP2;ratioP2;P2;SDS_P1;SDS_P2;PMS_P1;PMS_P2;Temp;Humidity;BMP_temperature;BMP_pressure;BME280_temperature;BME280_humidity;BME280_pressure;Samples;Min_cycle;Max_cycle;Signal;HPM_P1;HPM_P2
2022/08/20 00:02:25;;;;;;;4.30;2.50;;;;;;;19.73;68.38;100618.98;107099;1276;75124;-82
2022/08/20 00:04:52;;;;;;;4.60;2.50;;;;;;;19.70;68.49;100621.06;107204;1277;72460;-86
2022/08/20 00:07:19;;;;;;;4.90;2.50;;;;;;;19.68;68.79;100621.86;106716;1275;73185;-82
2022/08/20 00:09:45;;;;;;;5.90;2.40;;;;;;;19.63;69.09;100617.25;107843;1276;59219;-81
2022/08/20 00:12:16;;;;;;;3.80;2.40;;;;;;;19.58;69.22;100617.46;108194;1275;62039;-81
2022/08/20 00:14:43;;;;;;;3.70;2.50;;;;;;;19.54;69.34;100618.08;106632;1277;75057;-82
2022/08/20 00:17:10;;;;;;;4.30;2.40;;;;;;;19.51;69.45;100615.31;106589;1277;72568;-81
2022/08/20 00:19:37;;;;;;;6.90;2.60;;;;;;;19.48;69.58;100618.75;106854;1277;73413;-82
2022/08/20 00:22:04;;;;;;;4.70;2.50;;;;;;;19.45;69.66;100617.45;106275;1276;61167;-81
2022/08/20 00:24:31;;;;;;;3.60;2.50;;;;;;;19.41;69.77;100617.02;106559;1275;61108;-82
2022/08/20 00:26:58;;;;;;;4.50;2.30;;;;;;;19.37;69.88;100616.58;106863;1276;74950;-82
2022/08/20 00:29:25;;;;;;;3.70;2.50;;;;;;;19.35;70.02;100621.91;106615;1276;61256;-82
2022/08/20 00:31:52;;;;;;;5.10;2.90;;;;;;;19.32;70.27;100622.83;106195;1276;72904;-81
2022/08/20 00:34:19;;;;;;;4.70;3.00;;;;;;;19.30;70.45;100620.02;106164;1276;62298;-82
2022/08/20 00:36:48;;;;;;;4.10;3.10;;;;;;;19.27;70.68;100620.23;106690;1276;61597;-81
2022/08/20 00:39:16;;;;;;;4.50;3.10;;;;;;;19.24;70.82;100618.01;106302;1276;74891;-81
2022/08/20 00:41:58;;;;;;;4.80;2.80;;;;;;;19.23;71.22;100621.63;106706;1277;72822;-81
2022/08/20 00:44:28;;;;;;;5.00;3.20;;;;;;;19.20;71.45;100622.91;106754;1276;71379;-80
2022/08/20 00:46:54;;;;;;;3.80;2.90;;;;;;;19.18;71.58;100623.02;106477;1276;61935;-81
2022/08/20 00:49:27;;;;;;;3.70;2.90;;;;;;;19.19;71.64;100622.65;107022;1276;62273;-81
2022/08/20 00:52:11;;;;;;;6.50;3.10;;;;;;;19.19;71.81;100621.90;107083;1276;76000;-80
2022/08/20 00:54:59;;;;;;;6.20;3.00;;;;;;;19.18;72.05;100624.70;106944;1276;71532;-81
2022/08/20 00:57:33;;;;;;;5.60;2.70;;;;;;;19.17;72.12;100629.02;107293;1276;74307;-80
2022/08/20 01:00:26;;;;;;;6.90;3.00;;;;;;;19.18;72.18;100632.11;106711;1276;63746;-83
2022/08/20 01:02:54;;;;;;;5.20;3.10;;;;;;;19.20;72.24;100632.52;106091;1276;61267;-81
2022/08/20 01:05:23;;;;;;;5.00;2.80;;;;;;;19.21;72.22;100629.23;106549;1276;74953;-81
2022/08/20 01:07:57;;;;;;;7.10;3.10;;;;;;;19.23;72.32;100625.72;106324;1277;71463;-82
2022/08/20 01:10:28;;;;;;;5.20;2.90;;;;;;;19.24;72.33;100631.88;106326;1276;74386;-82
2022/08/20 01:12:57;;;;;;;4.80;3.00;;;;;;;19.24;72.42;100635.75;106233;1276;61972;-80
2022/08/20 01:15:30;;;;;;;5.00;2.90;;;;;;;19.24;72.44;100642.10;106700;1276;61714;-81
2022/08/20 01:17:59;;;;;;;5.60;3.00;;;;;;;19.23;72.71;100641.81;106504;1276;75678;-80
2022/08/20 01:20:36;;;;;;;8.30;3.00;;;;;;;19.24;72.87;100642.25;106081;1277;72388;-81
2022/08/20 01:23:39;;;;;;;4.50;2.70;;;;;;;19.24;72.94;100640.43;106228;1276;74254;-81
2022/08/20 01:26:08;;;;;;;4.10;2.80;;;;;;;19.23;73.25;100647.13;106411;1276;63606;-80
2022/08/20 01:28:43;;;;;;;4.10;2.80;;;;;;;19.22;73.33;100645.81;106853;1276;61192;-81
2022/08/20 01:31:14;;;;;;;5.90;3.20;;;;;;;19.21;73.35;100649.17;105763;1276;74955;-81
2022/08/20 01:33:43;;;;;;;4.30;3.00;;;;;;;19.19;73.42;100648.10;106833;1276;72879;-84
2022/08/20 01:36:13;;;;;;;5.50;3.10;;;;;;;19.18;73.77;100646.63;106117;1276;73077;-81
2022/08/20 01:38:40;;;;;;;5.10;2.70;;;;;;;19.17;73.62;100644.36;106481;1276;62254;-80
2022/08/20 01:41:32;;;;;;;5.00;2.90;;;;;;;19.15;74.05;100645.83;106258;1274;62763;-81
2022/08/20 01:43:59;;;;;;;5.70;3.00;;;;;;;19.12;74.12;100646.02;106291;1276;76386;-81
2022/08/20 01:46:31;;;;;;;6.50;3.00;;;;;;;19.09;74.25;100646.64;106487;1276;71659;-82
2022/08/20 01:49:10;;;;;;;4.40;2.70;;;;;;;19.05;74.48;100646.05;106515;1276;72748;-85
2022/08/20 01:51:40;;;;;;;3.40;2.70;;;;;;;19.00;74.55;100643.20;105807;1277;62220;-81
2022/08/20 01:54:07;;;;;;;6.10;3.10;;;;;;;18.95;74.48;100646.00;106327;1276;61273;-81
2022/08/20 01:56:51;;;;;;;3.70;3.00;;;;;;;18.89;74.74;100648.16;106555;1276;74773;-81
2022/08/20 01:59:18;;;;;;;5.90;3.30;;;;;;;18.80;74.84;100647.77;105935;1277;72944;-82
2022/08/20 02:01:45;;;;;;;6.00;3.20;;;;;;;18.73;75.05;100649.62;106045;1276;74666;-81
2022/08/20 02:04:15;;;;;;;4.90;2.90;;;;;;;18.68;75.17;100650.93;105915;1277;63263;-81
2022/08/20 02:06:49;;;;;;;4.50;2.90;;;;;;;18.66;75.43;100651.34;106453;1276;61389;-81
2022/08/20 02:09:24;;;;;;;5.60;3.10;;;;;;;18.62;75.64;100649.95;106581;1276;76017;-80
2022/08/20 02:11:52;;;;;;;5.20;3.00;;;;;;;18.60;75.86;100648.61;106236;1276;72117;-81
2022/08/20 02:14:19;;;;;;;5.80;3.10;;;;;;;18.59;75.83;100647.80;106880;1274;73155;-81
2022/08/20 02:16:46;;;;;;;3.80;3.10;;;;;;;18.57;76.13;100654.65;106108;1276;63358;-81
2022/08/20 02:19:32;;;;;;;5.10;3.10;;;;;;;18.55;76.34;100648.98;106104;1277;61307;-81
2022/08/20 02:22:03;;;;;;;6.20;3.10;;;;;;;18.54;76.55;100649.60;106079;1277;76341;-82
2022/08/20 02:24:30;;;;;;;4.80;3.20;;;;;;;18.54;76.60;100647.34;106305;1276;71463;-81
2022/08/20 02:26:57;;;;;;;5.10;3.10;;;;;;;18.54;76.66;100644.13;106119;1276;74771;-81
2022/08/20 02:29:25;;;;;;;5.70;3.20;;;;;;;18.55;76.85;100643.77;106043;1275;63284;-82
2022/08/20 02:31:53;;;;;;;4.90;3.20;;;;;;;18.57;77.06;100646.38;106733;1276;61278;-82
2022/08/20 02:34:41;;;;;;;4.40;2.90;;;;;;;18.60;77.19;100645.75;106773;1276;77495;-82
2022/08/20 02:37:08;;;;;;;6.10;3.30;;;;;;;18.62;77.31;100649.27;106225;1276;71950;-83
2022/08/20 02:39:35;;;;;;;5.30;3.40;;;;;;;18.62;77.40;100645.36;106280;1276;73351;-81
2022/08/20 02:42:04;;;;;;;4.50;3.30;;;;;;;18.65;77.43;100645.52;107137;1276;62203;-81
2022/08/20 02:44:31;;;;;;;7.90;4.00;;;;;;;18.69;77.58;100644.39;106923;1278;62303;-81
2022/08/20 02:46:59;;;;;;;6.20;3.90;;;;;;;18.72;77.57;100642.36;106100;1276;74045;-82
2022/08/20 02:49:26;;;;;;;4.90;3.90;;;;;;;18.74;77.64;100644.86;106431;1276;71421;-80
2022/08/20 02:51:53;;;;;;;6.10;4.40;;;;;;;18.75;77.61;100647.08;106382;1278;74405;-81
2022/08/20 02:54:23;;;;;;;6.50;4.40;;;;;;;18.76;77.69;100647.21;106381;1276;61332;-81
2022/08/20 02:56:50;;;;;;;5.90;4.30;;;;;;;18.79;77.65;100651.30;105373;1277;61695;-83
2022/08/20 02:59:17;;;;;;;6.30;4.80;;;;;;;18.82;77.70;100658.08;106619;1276;75930;-81
2022/08/20 03:01:47;;;;;;;5.70;4.60;;;;;;;18.83;77.50;100653.76;106882;1276;72757;-82
2022/08/20 03:04:27;;;;;;;6.50;4.80;;;;;;;18.83;77.44;100649.52;106033;1276;73694;-83
2022/08/20 03:06:54;;;;;;;7.10;4.90;;;;;;;18.84;77.44;100651.63;105813;1276;63746;-81
2022/08/20 03:09:20;;;;;;;6.30;4.90;;;;;;;18.86;77.44;100652.55;106740;1277;60713;-82
2022/08/20 03:11:47;;;;;;;6.70;4.80;;;;;;;18.90;77.40;100655.05;106504;1277;74915;-81
2022/08/20 03:14:14;;;;;;;6.40;4.90;;;;;;;18.92;77.27;100652.16;106249;1277;70935;-81
2022/08/20 03:16:41;;;;;;;6.20;4.90;;;;;;;18.95;77.23;100656.46;105707;1277;73076;-81
2022/08/20 03:19:08;;;;;;;7.20;5.10;;;;;;;18.98;77.09;100658.58;106864;1276;63127;-81
2022/08/20 03:21:36;;;;;;;5.60;4.60;;;;;;;19.00;76.96;100661.02;106368;1276;61246;-82
2022/08/20 03:24:06;;;;;;;6.60;4.50;;;;;;;19.03;77.04;100661.67;105941;1278;75071;-81
2022/08/20 03:26:32;;;;;;;9.90;4.80;;;;;;;19.06;76.97;100667.45;106025;1277;71592;-81
2022/08/20 03:28:59;;;;;;;6.00;4.70;;;;;;;19.06;76.80;100663.23;106259;1277;72628;-79
2022/08/20 03:31:26;;;;;;;6.40;4.70;;;;;;;19.06;76.90;100665.44;106505;1277;62376;-81
2022/08/20 03:33:53;;;;;;;6.50;5.20;;;;;;;19.04;76.69;100663.24;105939;1278;61301;-81
2022/08/20 03:36:22;;;;;;;5.30;4.70;;;;;;;19.01;76.70;100663.92;106487;1277;75014;-81
2022/08/20 03:39:00;;;;;;;6.10;5.00;;;;;;;19.02;76.77;100664.09;106282;1277;71410;-81
2022/08/20 03:41:27;;;;;;;6.00;4.90;;;;;;;19.03;76.71;100666.55;105778;1277;73253;-82
2022/08/20 03:43:54;;;;;;;7.00;5.10;;;;;;;19.03;76.87;100664.73;106293;1277;61553;-81
2022/08/20 03:46:21;;;;;;;7.40;4.80;;;;;;;19.03;76.84;100664.95;106136;1277;61272;-82
2022/08/20 03:48:54;;;;;;;5.50;4.80;;;;;;;19.03;76.79;100667.52;106667;1277;75803;-81
2022/08/20 03:51:29;;;;;;;7.00;5.10;;;;;;;19.03;76.87;100667.47;106646;1277;71325;-82
2022/08/20 03:53:56;;;;;;;7.50;5.00;;;;;;;19.06;77.09;100672.92;107647;1277;72931;-83
2022/08/20 03:56:24;;;;;;;4.90;4.10;;;;;;;19.08;77.20;100673.89;107505;1277;61974;-89
2022/08/20 03:58:50;;;;;;;6.00;4.60;;;;;;;19.09;77.42;100673.75;106426;1277;61396;-88
2022/08/20 04:01:17;;;;;;;6.00;4.20;;;;;;;19.09;77.43;100677.52;106473;1277;74702;-80
2022/08/20 04:04:04;;;;;;;7.30;4.60;;;;;;;19.07;77.77;100681.09;106043;1277;74674;-91
2022/08/20 04:06:39;;;;;;;6.60;4.20;;;;;;;19.06;78.12;100681.41;106764;1277;71065;-81
2022/08/20 04:09:07;;;;;;;5.20;3.70;;;;;;;19.01;78.25;100681.52;106186;1277;63370;-81
2022/08/20 04:11:36;;;;;;;6.40;4.10;;;;;;;18.98;78.49;100680.56;106160;1276;62525;-86
2022/08/20 04:14:03;;;;;;;5.20;3.90;;;;;;;18.96;78.86;100685.56;106122;1277;75838;-85
2022/08/20 04:16:31;;;;;;;5.60;3.90;;;;;;;18.93;78.77;100684.86;106536;1277;71333;-81
2022/08/20 04:18:59;;;;;;;4.90;4.00;;;;;;;18.93;78.57;100684.66;106210;1277;73046;-87
2022/08/20 04:21:32;;;;;;;6.90;4.20;;;;;;;18.96;78.50;100679.48;106030;1277;61947;-81
2022/08/20 04:24:04;;;;;;;5.90;4.20;;;;;;;18.99;78.29;100680.98;106374;1277;61531;-80
2022/08/20 04:26:34;;;;;;;5.70;4.10;;;;;;;19.02;77.87;100681.30;106383;1277;74701;-83
2022/08/20 04:29:01;;;;;;;6.90;3.90;;;;;;;19.03;77.28;100682.73;106519;1277;71591;-80
2022/08/20 04:31:31;;;;;;;4.40;3.60;;;;;;;19.06;77.07;100686.74;106147;1277;73977;-81
2022/08/20 04:34:03;;;;;;;6.60;4.20;;;;;;;19.10;77.03;100692.48;105770;1276;62701;-81
2022/08/20 04:36:30;;;;;;;5.80;3.80;;;;;;;19.14;76.83;100692.05;106270;1277;61372;-83
2022/08/20 04:38:57;;;;;;;5.40;4.10;;;;;;;19.18;76.64;100691.80;105870;1277;76132;-81
2022/08/20 04:41:24;;;;;;;5.90;4.40;;;;;;;19.20;76.34;100695.52;105875;1277;71513;-80
2022/08/20 04:43:53;;;;;;;4.60;3.80;;;;;;;19.22;76.12;100700.14;106512;1277;72735;-80
2022/08/20 04:46:22;;;;;;;5.20;4.20;;;;;;;19.24;76.00;100705.30;106445;1277;62274;-81
2022/08/20 04:48:49;;;;;;;5.80;4.80;;;;;;;19.26;75.89;100703.63;106462;1276;62419;-81
2022/08/20 04:51:17;;;;;;;5.70;4.70;;;;;;;19.26;75.72;100706.69;105820;1277;74928;-80
2022/08/20 04:53:45;;;;;;;5.60;4.70;;;;;;;19.23;75.61;100704.96;106464;1277;71408;-81
2022/08/20 04:56:18;;;;;;;6.60;5.40;;;;;;;19.22;75.78;100705.30;106171;1276;72839;-79
2022/08/20 04:58:47;;;;;;;6.00;5.20;;;;;;;19.21;75.94;100708.63;106361;1276;63122;-81
2022/08/20 05:01:14;;;;;;;5.80;5.20;;;;;;;19.22;76.04;100712.83;106178;1276;61273;-81
2022/08/20 05:03:42;;;;;;;5.70;5.10;;;;;;;19.21;76.43;100717.23;106636;1278;74026;-81
2022/08/20 05:06:10;;;;;;;6.60;5.20;;;;;;;19.20;76.78;100714.92;106589;1277;71398;-81
2022/08/20 05:08:38;;;;;;;6.30;5.40;;;;;;;19.19;77.11;100715.02;106149;1277;73081;-81
2022/08/20 05:11:08;;;;;;;6.30;5.30;;;;;;;19.17;77.30;100715.69;105864;1276;63098;-80
2022/08/20 05:13:55;;;;;;;6.50;5.80;;;;;;;19.17;77.51;100714.52;106665;1277;62908;-80
2022/08/20 05:16:23;;;;;;;6.20;5.60;;;;;;;19.15;77.70;100713.05;106246;1276;76627;-81
2022/08/20 05:18:50;;;;;;;6.70;6.00;;;;;;;19.15;77.96;100713.52;106329;1277;72514;-81
2022/08/20 05:21:19;;;;;;;7.90;6.30;;;;;;;19.13;78.28;100712.14;106188;1277;73492;-81
2022/08/20 05:23:46;;;;;;;7.60;6.40;;;;;;;19.12;78.53;100710.38;106846;1277;62638;-82
2022/08/20 05:26:14;;;;;;;9.00;6.80;;;;;;;19.10;78.92;100709.58;105830;1277;61195;-81
2022/08/20 05:28:42;;;;;;;7.90;7.10;;;;;;;19.09;79.50;100709.14;106201;1277;73784;-81
2022/08/20 05:31:24;;;;;;;8.10;7.10;;;;;;;19.10;79.73;100714.84;106462;1277;70554;-81
2022/08/20 05:34:08;;;;;;;8.20;7.30;;;;;;;19.11;80.05;100714.66;106567;1277;74389;-82
2022/08/20 05:36:43;;;;;;;8.20;7.40;;;;;;;19.12;80.49;100708.35;105997;1277;62542;-81
2022/08/20 05:39:12;;;;;;;9.40;7.20;;;;;;;19.13;80.98;100704.08;106447;1276;60372;-82
2022/08/20 05:41:39;;;;;;;8.70;7.40;;;;;;;19.14;81.09;100698.92;106373;1277;75019;-82
2022/08/20 05:44:12;;;;;;;8.90;7.50;;;;;;;19.17;81.44;100699.63;105851;1276;72405;-81
2022/08/20 05:46:42;;;;;;;9.50;8.50;;;;;;;19.22;81.82;100698.89;106094;1276;72713;-81
2022/08/20 05:49:12;;;;;;;8.70;7.80;;;;;;;19.27;81.80;100707.77;106230;1277;63046;-82
2022/08/20 05:51:39;;;;;;;12.50;8.30;;;;;;;19.30;81.72;100710.92;106781;1276;61302;-81
2022/08/20 05:54:06;;;;;;;9.80;8.80;;;;;;;19.31;81.72;100715.33;106283;1276;74891;-81
2022/08/20 05:56:34;;;;;;;10.50;9.40;;;;;;;19.36;81.69;100724.20;107050;1277;72687;-81
2022/08/20 05:59:03;;;;;;;10.20;8.50;;;;;;;19.38;82.27;100731.45;106191;1276;72995;-80
2022/08/20 06:01:32;;;;;;;9.40;8.10;;;;;;;19.35;82.99;100736.17;106615;1277;63422;-81
2022/08/20 06:06:46;;;;;;;11.40;9.60;;;;;;;19.27;83.91;100739.84;106030;1277;74998;-81
2022/08/20 06:09:18;;;;;;;11.00;8.90;;;;;;;19.29;83.96;100743.17;106257;1276;71543;-80
2022/08/20 06:11:59;;;;;;;10.40;9.20;;;;;;;19.34;84.29;100746.44;106547;1276;73729;-80
2022/08/20 06:14:26;;;;;;;11.30;9.30;;;;;;;19.42;84.10;100747.05;106247;1277;63329;-81
2022/08/20 06:16:52;;;;;;;10.40;8.90;;;;;;;19.51;83.71;100745.15;106480;1276;61169;-81
2022/08/20 06:19:25;;;;;;;9.70;8.40;;;;;;;19.60;83.14;100745.59;106809;1276;74718;-80
2022/08/20 06:21:58;;;;;;;11.20;7.60;;;;;;;19.72;82.68;100747.98;106246;1276;72804;-88
2022/08/20 06:24:25;;;;;;;7.90;7.10;;;;;;;19.81;81.86;100746.63;106313;1277;73840;-81
2022/08/20 06:26:56;;;;;;;7.60;6.50;;;;;;;19.90;81.24;100746.04;106020;1276;62320;-81
2022/08/20 06:29:23;;;;;;;9.30;7.30;;;;;;;20.01;80.67;100746.75;106475;1276;61188;-81
2022/08/20 06:31:50;;;;;;;9.60;7.80;;;;;;;20.08;80.01;100747.28;106493;1276;75956;-81
2022/08/20 06:34:17;;;;;;;8.10;7.30;;;;;;;20.16;80.04;100741.31;106348;1276;71957;-81
2022/08/20 06:36:45;;;;;;;8.10;6.90;;;;;;;20.27;79.99;100744.66;105756;1276;74072;-81
2022/08/20 06:39:13;;;;;;;9.10;6.70;;;;;;;20.45;79.74;100742.32;106756;1277;61336;-83
2022/08/20 06:41:40;;;;;;;8.20;7.20;;;;;;;20.61;79.04;100740.71;105975;1276;61166;-82
2022/08/20 06:44:08;;;;;;;7.80;6.60;;;;;;;20.73;78.31;100743.27;106732;1277;74898;-81
2022/08/20 06:46:37;;;;;;;8.40;7.20;;;;;;;20.83;77.92;100748.25;105503;1277;71448;-81
2022/08/20 06:49:05;;;;;;;8.20;7.20;;;;;;;20.91;77.44;100753.41;106697;1277;72804;-81
2022/08/20 06:51:36;;;;;;;9.10;7.50;;;;;;;20.94;76.65;100753.89;106627;1276;62076;-81
2022/08/20 06:54:04;;;;;;;8.80;7.40;;;;;;;20.94;76.38;100750.81;106343;1277;61008;-81
2022/08/20 06:56:35;;;;;;;8.20;7.10;;;;;;;20.97;76.17;100744.89;105900;1276;76220;-81
2022/08/20 06:59:02;;;;;;;8.80;6.70;;;;;;;21.06;76.02;100740.46;106687;1276;72406;-79
2022/08/20 07:01:28;;;;;;;9.10;6.90;;;;;;;21.15;75.46;100743.31;105621;1277;72635;-81
2022/08/20 07:03:58;;;;;;;8.30;6.50;;;;;;;21.23;75.04;100742.52;106090;1277;61981;-82
2022/08/20 07:06:26;;;;;;;7.30;6.30;;;;;;;21.36;74.77;100750.33;105290;1276;61722;-81
2022/08/20 07:08:54;;;;;;;7.40;6.60;;;;;;;21.47;73.72;100754.15;106067;1277;74910;-82
2022/08/20 07:11:20;;;;;;;7.70;6.70;;;;;;;21.53;73.30;100747.40;105708;1276;71863;-81
2022/08/20 07:13:55;;;;;;;10.40;7.30;;;;;;;21.71;73.57;100747.94;106219;1276;73541;-82
2022/08/20 07:16:23;;;;;;;40.30;10.30;;;;;;;21.92;73.08;100747.86;105532;1277;61307;-81
2022/08/20 07:18:50;;;;;;;98.30;16.70;;;;;;;22.03;71.82;100750.92;106528;1276;61266;-80
2022/08/20 07:21:17;;;;;;;9.30;6.80;;;;;;;22.06;71.58;100746.20;105777;1274;74113;-81
2022/08/20 07:23:43;;;;;;;10.10;6.80;;;;;;;22.12;71.10;100747.91;105932;1276;70695;-80
2022/08/20 07:26:11;;;;;;;8.60;6.10;;;;;;;22.15;70.72;100747.34;105677;1277;74838;-80
2022/08/20 07:28:39;;;;;;;7.80;6.60;;;;;;;22.21;70.89;100752.04;105901;1275;63194;-79
2022/08/20 07:33:52;;;;;;;15.90;7.60;;;;;;;22.45;70.68;100760.33;105720;1277;75976;-80
2022/08/20 07:36:20;;;;;;;6.60;5.90;;;;;;;22.61;69.95;100763.01;105933;1277;70880;-80
2022/08/20 07:38:51;;;;;;;6.60;5.90;;;;;;;22.74;69.47;100765.80;106046;1276;73079;-79
2022/08/20 07:41:18;;;;;;;12.40;6.60;;;;;;;22.86;68.90;100764.95;108277;1276;64570;-80
2022/08/20 07:46:06;;;;;;;8.00;6.20;;;;;;;23.16;68.72;100771.21;102846;1309;598815;-81
2022/08/20 07:48:37;;;;;;;8.00;6.70;;;;;;;23.33;67.74;100775.92;105099;1285;63236;-80
2022/08/20 07:51:09;;;;;;;10.00;7.40;;;;;;;23.41;66.60;100773.05;105023;1284;61800;-80
2022/08/20 07:53:38;;;;;;;8.20;7.00;;;;;;;23.44;66.10;100771.83;104890;1284;72411;-79
2022/08/20 07:56:12;;;;;;;8.50;6.20;;;;;;;23.49;65.64;100774.23;105077;1283;71435;-78
2022/08/20 07:58:42;;;;;;;7.90;6.30;;;;;;;23.45;64.69;100781.21;104233;1281;1446554;-78
2022/08/20 08:01:11;;;;;;;13.90;7.70;;;;;;;23.46;64.97;100784.09;105417;1283;61260;-80
2022/08/20 08:03:38;;;;;;;10.70;6.10;;;;;;;23.54;65.16;100783.27;105785;1281;62175;-79
2022/08/20 08:06:18;;;;;;;7.10;6.30;;;;;;;23.67;65.12;100780.88;105729;1280;73271;-80
2022/08/20 08:09:05;;;;;;;6.80;6.00;;;;;;;23.77;64.82;100780.91;105316;1280;71479;-80
2022/08/20 08:11:34;;;;;;;8.10;6.40;;;;;;;23.85;63.67;100783.02;105698;1280;73878;-80
2022/08/20 08:14:04;;;;;;;18.60;7.60;;;;;;;23.93;63.69;100781.95;105585;1280;61806;-83
2022/08/20 08:16:31;;;;;;;10.80;6.80;;;;;;;24.16;63.85;100782.55;105590;1280;61933;-80
2022/08/20 08:19:00;;;;;;;7.70;6.20;;;;;;;24.44;63.03;100783.02;107101;1279;73984;-79
2022/08/20 08:21:29;;;;;;;9.00;5.80;;;;;;;24.79;62.50;100784.50;108004;1279;73500;-79
2022/08/20 08:23:55;;;;;;;7.10;6.40;;;;;;;25.16;61.69;100792.23;107394;1279;73124;-79
2022/08/20 08:26:22;;;;;;;7.70;6.00;;;;;;;25.42;60.57;100794.97;107244;1279;63478;-79
2022/08/20 08:28:50;;;;;;;8.20;6.50;;;;;;;25.64;59.50;100794.48;106274;1280;59661;-80
2022/08/20 08:31:16;;;;;;;8.20;6.10;;;;;;;25.69;58.65;100798.96;105622;1280;73802;-79
2022/08/20 08:33:43;;;;;;;6.90;6.10;;;;;;;25.72;58.77;100800.02;106169;1280;72799;-80
2022/08/20 08:36:13;;;;;;;7.50;6.50;;;;;;;25.70;58.51;100800.54;106080;1279;74380;-80
2022/08/20 08:38:43;;;;;;;8.80;6.50;;;;;;;25.61;58.21;100799.09;106101;1279;60659;-79
2022/08/20 08:41:20;;;;;;;7.00;6.30;;;;;;;25.43;58.57;100804.05;106109;1280;60383;-80
2022/08/20 08:43:48;;;;;;;7.10;6.00;;;;;;;25.22;58.88;100802.49;106351;1280;73292;-80
2022/08/20 08:46:21;;;;;;;6.60;5.60;;;;;;;25.11;59.39;100805.35;106139;1280;71572;-80
2022/08/20 08:48:52;;;;;;;8.10;6.30;;;;;;;24.97;59.35;100809.39;106138;1280;73247;-80
2022/08/20 08:51:41;;;;;;;7.40;5.80;;;;;;;24.75;59.68;100811.94;106175;1280;62792;-80
2022/08/20 08:54:15;;;;;;;7.80;6.00;;;;;;;24.61;60.31;100810.61;106130;1280;60256;-80
2022/08/20 08:56:42;;;;;;;6.30;5.30;;;;;;;24.52;61.13;100810.95;105802;1280;73273;-80
2022/08/20 08:59:15;;;;;;;6.40;5.50;;;;;;;24.40;61.23;100814.23;105931;1280;71159;-79
2022/08/20 09:01:47;;;;;;;7.80;5.00;;;;;;;24.25;61.31;100823.21;105819;1280;71612;-79
2022/08/20 09:04:30;;;;;;;6.40;5.50;;;;;;;23.95;61.85;100823.47;106694;1281;60481;-80
2022/08/20 09:07:03;;;;;;;6.80;5.70;;;;;;;23.75;62.29;100818.88;105270;1280;61668;-79
2022/08/20 09:09:36;;;;;;;6.70;5.50;;;;;;;23.67;62.79;100825.08;106009;1280;74597;-80
2022/08/20 09:12:12;;;;;;;6.50;5.50;;;;;;;23.68;62.96;100822.05;105770;1280;72393;-79
2022/08/20 09:14:39;;;;;;;8.30;5.80;;;;;;;23.73;62.89;100817.27;105889;1281;74309;-80
2022/08/20 09:17:06;;;;;;;6.00;4.90;;;;;;;23.77;62.50;100818.79;105423;1281;62122;-80
2022/08/20 09:19:33;;;;;;;6.10;5.50;;;;;;;23.81;62.12;100820.18;106185;1281;61738;-78
2022/08/20 09:22:07;;;;;;;13.60;6.30;;;;;;;23.93;62.38;100819.34;106355;1280;74258;-79
2022/08/20 09:24:34;;;;;;;6.10;4.40;;;;;;;24.08;61.60;100822.89;105989;1281;71476;-79
2022/08/20 09:27:01;;;;;;;5.70;4.60;;;;;;;24.16;61.49;100818.50;105577;1283;74479;-80
2022/08/20 09:29:28;;;;;;;6.00;4.80;;;;;;;24.19;61.30;100823.55;106014;1280;64949;-78
2022/08/20 09:32:16;;;;;;;6.00;4.50;;;;;;;24.15;61.22;100827.38;105839;1280;60588;-80
2022/08/20 09:34:47;;;;;;;6.30;4.60;;;;;;;24.13;61.15;100827.91;105661;1280;73318;-79
2022/08/20 09:37:14;;;;;;;5.60;4.40;;;;;;;24.09;61.00;100825.66;105956;1281;71482;-81
2022/08/20 09:39:42;;;;;;;6.90;6.20;;;;;;;24.04;60.96;100828.13;105904;1280;74035;-79
2022/08/20 09:42:11;;;;;;;7.60;6.70;;;;;;;24.00;60.84;100823.77;106101;1280;62381;-80
2022/08/20 09:44:39;;;;;;;7.10;5.40;;;;;;;24.04;61.08;100820.70;105435;1281;61667;-80
2022/08/20 09:47:06;;;;;;;11.50;5.40;;;;;;;24.07;60.72;100816.66;105861;1280;72193;-80
2022/08/20 09:49:33;;;;;;;13.00;6.10;;;;;;;24.05;60.29;100816.16;106032;1280;71253;-79
2022/08/20 09:52:00;;;;;;;6.60;5.40;;;;;;;24.12;60.11;100816.69;106086;1280;72745;-80
2022/08/20 09:54:34;;;;;;;16.20;6.20;;;;;;;24.21;60.14;100817.65;105368;1280;60313;-80
2022/08/20 09:57:05;;;;;;;7.10;4.20;;;;;;;24.30;59.30;100821.56;106159;1274;59743;-79
2022/08/20 09:59:33;;;;;;;6.40;5.70;;;;;;;24.39;59.42;100813.89;106012;1282;74665;-80
2022/08/20 10:02:00;;;;;;;6.70;6.00;;;;;;;24.45;58.41;100808.73;106004;1281;72700;-79
2022/08/20 10:04:30;;;;;;;6.80;6.10;;;;;;;24.58;57.74;100815.19;105429;1281;71751;-80
2022/08/20 10:06:57;;;;;;;5.80;5.10;;;;;;;24.72;57.70;100817.20;105529;1282;60638;-80
2022/08/20 10:09:24;;;;;;;6.10;5.50;;;;;;;24.87;56.99;100824.46;105414;1284;60349;-80
2022/08/20 10:11:51;;;;;;;6.10;4.80;;;;;;;25.00;56.11;100818.67;105974;1281;75970;-81
2022/08/20 10:14:18;;;;;;;7.90;7.10;;;;;;;25.06;56.24;100821.63;105268;1284;71356;-80
2022/08/20 10:16:45;;;;;;;7.90;6.90;;;;;;;25.04;55.11;100820.33;106474;1282;73088;-81
2022/08/20 10:19:11;;;;;;;8.10;7.00;;;;;;;25.07;55.30;100822.11;106285;1283;61621;-79
2022/08/20 10:21:38;;;;;;;7.40;6.20;;;;;;;25.30;56.15;100820.88;105437;1283;62073;-80
2022/08/20 10:24:05;;;;;;;7.70;5.60;;;;;;;25.60;55.60;100821.85;106006;1283;72550;-79
2022/08/20 10:26:32;;;;;;;8.90;6.70;;;;;;;25.97;55.62;100823.02;106829;1282;71691;-80
2022/08/20 10:29:00;;;;;;;6.90;6.20;;;;;;;26.34;54.28;100821.95;106438;1284;74308;-81
2022/08/20 10:31:27;;;;;;;6.10;5.20;;;;;;;26.62;52.98;100821.05;105803;1281;60893;-81
2022/08/20 10:33:54;;;;;;;5.40;4.50;;;;;;;26.84;52.05;100817.45;105405;1281;62100;-81
2022/08/20 10:36:20;;;;;;;4.80;3.80;;;;;;;27.02;50.54;100818.98;105992;1283;74782;-81
2022/08/20 10:38:47;;;;;;;4.60;3.80;;;;;;;27.14;49.99;100813.40;105847;1281;59756;-79
2022/08/20 10:41:14;;;;;;;6.20;4.90;;;;;;;27.12;48.88;100813.90;105614;1283;72715;-80
2022/08/20 10:43:42;;;;;;;4.90;4.20;;;;;;;27.07;49.11;100806.98;105518;1281;61993;-80
2022/08/20 10:46:08;;;;;;;4.80;3.70;;;;;;;27.02;49.81;100810.75;105683;1282;61779;-80
2022/08/20 10:48:37;;;;;;;5.00;3.80;;;;;;;27.02;49.83;100814.02;105852;1283;74654;-80
2022/08/20 10:51:07;;;;;;;6.60;3.70;;;;;;;26.83;49.70;100815.48;105701;1281;72698;-79
2022/08/20 10:53:35;;;;;;;4.70;3.50;;;;;;;26.69;49.81;100819.66;106394;1281;70977;-81
2022/08/20 10:56:06;;;;;;;8.20;5.20;;;;;;;26.58;50.20;100824.33;105760;1283;61274;-79
2022/08/20 10:58:32;;;;;;;5.40;4.00;;;;;;;26.47;50.91;100823.80;106026;1283;61569;-82
2022/08/20 11:01:08;;;;;;;6.60;5.40;;;;;;;26.24;51.15;100825.31;105455;1283;73533;-82
2022/08/20 11:03:35;;;;;;;7.80;5.30;;;;;;;26.04;52.19;100825.85;105622;1283;71190;-80
2022/08/20 11:06:02;;;;;;;7.00;5.30;;;;;;;25.80;53.01;100825.00;105649;1283;75459;-81
2022/08/20 11:08:32;;;;;;;5.60;4.50;;;;;;;25.52;53.77;100828.21;105971;1283;60760;-79
2022/08/20 11:11:05;;;;;;;5.50;4.40;;;;;;;25.14;55.18;100827.13;105528;1283;61350;-79
2022/08/20 11:13:34;;;;;;;6.60;4.00;;;;;;;24.91;56.43;100833.69;106136;1283;73499;-79
2022/08/20 11:16:05;;;;;;;9.90;4.00;;;;;;;24.63;57.17;100838.11;105107;1283;71156;-79
2022/08/20 11:18:32;;;;;;;5.50;3.50;;;;;;;24.35;57.62;100839.63;105549;1283;72929;-79
2022/08/20 11:21:00;;;;;;;8.10;5.20;;;;;;;24.08;60.29;100844.90;105375;1282;60446;-82
2022/08/20 11:23:27;;;;;;;6.70;6.00;;;;;;;23.68;65.02;100857.59;105345;1283;62096;-80
2022/08/20 11:25:56;;;;;;;8.00;7.20;;;;;;;23.14;69.89;100865.95;105234;1285;72313;-81
2022/08/20 11:28:23;;;;;;;9.90;8.40;;;;;;;22.64;72.93;100871.09;106088;1283;72728;-80
2022/08/20 11:30:58;;;;;;;10.80;8.80;;;;;;;22.18;75.61;100877.57;105559;1282;73273;-78
2022/08/20 11:33:25;;;;;;;7.70;6.20;;;;;;;21.81;77.78;100883.15;105196;1283;62042;-79
2022/08/20 11:35:52;;;;;;;8.10;7.30;;;;;;;21.29;80.20;100884.66;105655;1283;61354;-78
2022/08/20 11:38:18;;;;;;;7.60;6.80;;;;;;;20.88;80.98;100880.30;105143;1283;74702;-78